Eugene, Missouri
Current Conditions -  °F | °C
As of 1:55 PM on Sunday 21 Dec 2014 (Local Time) from KAIZ Reporting Station
Overcast Overcast  
Wind Chill: 36°   Ceiling: 4600
Heat Index: 43°   Visibility: 10mi
Dew Point: 37°   Wind: 13mph
Humidity: 81%   Direction: 160°SSE
Pressure: 29.97"   Gusts: 20mph
Location:  38.35°N, 92.4°W
Report Text: KAIZ 211955Z AUTO 16011G17KT 10SM SCT011 BKN046 OVC055 06/03 A2997 RMK AO1
Loading
Personal Weather Stations






























Interactive Weather Map New forecast layout! Learn more

10-Day Weather Forecast

Advertisements
Track Severe Weather on mobile